createdAt,value
2018-09-29T00:00:44.097Z,1027.93
2018-09-29T00:01:43.906Z,1027.9
2018-09-29T00:02:44.328Z,1027.88
2018-09-29T00:03:44.052Z,1027.84
2018-09-29T00:04:44.008Z,1027.94
2018-09-29T00:05:44.073Z,1027.93
2018-09-29T00:06:43.938Z,1027.88
2018-09-29T00:07:44.065Z,1027.88
2018-09-29T00:08:44.128Z,1027.89
2018-09-29T00:09:43.858Z,1027.87
2018-09-29T00:10:43.975Z,1027.86
2018-09-29T00:11:44.148Z,1027.85
2018-09-29T00:12:43.959Z,1027.92
2018-09-29T00:13:44.032Z,1027.94
2018-09-29T00:14:44.018Z,1027.91
2018-09-29T00:15:43.952Z,1027.9
2018-09-29T00:16:44.058Z,1027.92
2018-09-29T00:17:44.021Z,1027.94
2018-09-29T00:18:43.944Z,1028.02
2018-09-29T00:19:43.909Z,1027.98
2018-09-29T00:20:44.325Z,1028.01
2018-09-29T00:21:44.032Z,1027.98
2018-09-29T00:22:43.923Z,1028.03
2018-09-29T00:23:44.288Z,1028.09
2018-09-29T00:24:44.206Z,1028.05
2018-09-29T00:25:44.062Z,1028.05
2018-09-29T00:26:43.862Z,1028.09
2018-09-29T00:27:43.904Z,1028.04
2018-09-29T00:28:44.120Z,1028.05
2018-09-29T00:29:44.248Z,1028.02
2018-09-29T00:30:44.004Z,1028.03
2018-09-29T00:31:44.267Z,1028.04
2018-09-29T00:32:44.041Z,1028.02
2018-09-29T00:33:44.038Z,1027.98
2018-09-29T00:34:44.091Z,1027.97
2018-09-29T00:35:44.301Z,1027.97
2018-09-29T00:36:43.873Z,1027.99
2018-09-29T00:37:43.926Z,1027.95
2018-09-29T00:38:43.893Z,1027.95
2018-09-29T00:39:44.133Z,1028.02
2018-09-29T00:40:44.099Z,1028.06
2018-09-29T00:41:43.934Z,1028.02
2018-09-29T00:42:43.972Z,1027.99
2018-09-29T00:43:44.039Z,1027.95
2018-09-29T00:44:43.800Z,1027.98
2018-09-29T00:45:44.111Z,1027.97
2018-09-29T00:46:43.926Z,1027.93
2018-09-29T00:47:44.139Z,1028.04
2018-09-29T00:48:44.141Z,1028
2018-09-29T00:49:44.132Z,1028
2018-09-29T00:50:44.090Z,1028
2018-09-29T00:51:43.928Z,1028.03
2018-09-29T00:52:44.290Z,1027.94
2018-09-29T00:53:44.359Z,1027.99
2018-09-29T00:54:44.017Z,1027.91
2018-09-29T00:55:44.008Z,1027.96
2018-09-29T00:56:44.129Z,1027.86
2018-09-29T00:57:44.019Z,1027.92
2018-09-29T00:58:44.261Z,1027.92
2018-09-29T00:59:44.070Z,1027.91
2018-09-29T01:00:44.241Z,1027.92
2018-09-29T01:01:44.383Z,1027.86
2018-09-29T01:02:43.821Z,1027.85
2018-09-29T01:03:43.957Z,1027.86
2018-09-29T01:04:44.076Z,1027.87
2018-09-29T01:05:43.958Z,1027.88
2018-09-29T01:06:44.044Z,1027.9
2018-09-29T01:07:44.121Z,1027.9
2018-09-29T01:08:43.949Z,1027.89
2018-09-29T01:09:43.984Z,1027.85
2018-09-29T01:10:44.017Z,1027.83
2018-09-29T01:11:44.025Z,1027.83
2018-09-29T01:12:43.797Z,1027.85
2018-09-29T01:13:43.969Z,1027.82
2018-09-29T01:14:43.847Z,1027.79
2018-09-29T01:15:43.954Z,1027.79
2018-09-29T01:16:43.806Z,1027.76
2018-09-29T01:17:43.967Z,1027.74
2018-09-29T01:18:44.356Z,1027.79
2018-09-29T01:19:43.968Z,1027.7
2018-09-29T01:20:43.929Z,1027.75
2018-09-29T01:21:43.780Z,1027.7
2018-09-29T01:22:43.997Z,1027.7
2018-09-29T01:23:43.883Z,1027.73
2018-09-29T01:24:43.873Z,1027.76
2018-09-29T01:25:43.955Z,1027.68
2018-09-29T01:26:43.884Z,1027.66
2018-09-29T01:27:44.186Z,1027.64
2018-09-29T01:28:43.884Z,1027.65
2018-09-29T01:29:43.940Z,1027.6
2018-09-29T01:30:43.881Z,1027.61
2018-09-29T01:31:43.948Z,1027.57
2018-09-29T01:32:43.815Z,1027.58
2018-09-29T01:33:44.155Z,1027.54
2018-09-29T01:34:44.028Z,1027.52
2018-09-29T01:35:43.917Z,1027.49
2018-09-29T01:36:44.197Z,1027.49
2018-09-29T01:37:44.282Z,1027.48
2018-09-29T01:38:43.784Z,1027.45
2018-09-29T01:39:44.005Z,1027.48
2018-09-29T01:40:44.018Z,1027.48
2018-09-29T01:41:43.893Z,1027.53
2018-09-29T01:42:43.935Z,1027.47
2018-09-29T01:43:44.135Z,1027.56
2018-09-29T01:44:43.912Z,1027.52
2018-09-29T01:45:44.147Z,1027.52
2018-09-29T01:46:44.153Z,1027.51
2018-09-29T01:47:44.028Z,1027.53
2018-09-29T01:48:44.148Z,1027.53
2018-09-29T01:49:43.921Z,1027.5
2018-09-29T01:50:44.213Z,1027.5
2018-09-29T01:51:44.103Z,1027.51
2018-09-29T01:52:43.827Z,1027.48
2018-09-29T01:53:43.904Z,1027.52
2018-09-29T01:54:43.841Z,1027.54
2018-09-29T01:55:43.839Z,1027.57
2018-09-29T01:56:44.198Z,1027.53
2018-09-29T01:57:43.892Z,1027.53
2018-09-29T01:58:43.978Z,1027.57
2018-09-29T01:59:43.896Z,1027.58
2018-09-29T02:00:44.398Z,1027.53
2018-09-29T02:01:44.149Z,1027.57
2018-09-29T02:02:43.823Z,1027.62
2018-09-29T02:03:43.945Z,1027.64
2018-09-29T02:04:44.120Z,1027.67
2018-09-29T02:05:43.792Z,1027.63
2018-09-29T02:06:44.080Z,1027.68
2018-09-29T02:07:44.136Z,1027.62
2018-09-29T02:08:43.864Z,1027.66
2018-09-29T02:09:44.344Z,1027.68
2018-09-29T02:10:43.862Z,1027.67
2018-09-29T02:11:44.097Z,1027.64
2018-09-29T02:12:43.966Z,1027.68
2018-09-29T02:13:43.974Z,1027.68
2018-09-29T02:14:44.110Z,1027.62
2018-09-29T02:15:44.165Z,1027.65
2018-09-29T02:16:44.005Z,1027.67
2018-09-29T02:17:43.931Z,1027.68
2018-09-29T02:18:44.181Z,1027.7
2018-09-29T02:19:44.122Z,1027.72
2018-09-29T02:20:43.823Z,1027.71
2018-09-29T02:21:43.916Z,1027.74
2018-09-29T02:22:43.799Z,1027.66
2018-09-29T02:23:43.894Z,1027.67
2018-09-29T02:24:43.977Z,1027.66
2018-09-29T02:25:43.995Z,1027.6
2018-09-29T02:26:44.022Z,1027.6
2018-09-29T02:27:43.793Z,1027.62
2018-09-29T02:28:44.034Z,1027.63
2018-09-29T02:29:43.907Z,1027.58
2018-09-29T02:30:43.843Z,1027.6
2018-09-29T02:31:43.862Z,1027.6
2018-09-29T02:32:43.893Z,1027.64
2018-09-29T02:33:43.834Z,1027.61
2018-09-29T02:34:43.842Z,1027.63
2018-09-29T02:35:44.015Z,1027.6
2018-09-29T02:36:43.934Z,1027.62
2018-09-29T02:37:43.863Z,1027.58
2018-09-29T02:38:44.031Z,1027.55
2018-09-29T02:39:43.934Z,1027.6
2018-09-29T02:40:43.945Z,1027.65
2018-09-29T02:41:43.740Z,1027.6
2018-09-29T02:42:43.852Z,1027.63
2018-09-29T02:43:43.858Z,1027.63
2018-09-29T02:44:43.739Z,1027.6
2018-09-29T02:45:43.875Z,1027.63
2018-09-29T02:46:43.909Z,1027.67
2018-09-29T02:47:44.099Z,1027.68
2018-09-29T02:48:43.877Z,1027.69
2018-09-29T02:49:44.123Z,1027.76
2018-09-29T02:50:44.038Z,1027.69
2018-09-29T02:51:43.805Z,1027.73
2018-09-29T02:52:44.102Z,1027.7
2018-09-29T02:53:44.088Z,1027.69
2018-09-29T02:54:43.802Z,1027.68
2018-09-29T02:55:44.021Z,1027.71
2018-09-29T02:56:43.966Z,1027.68
2018-09-29T02:57:43.846Z,1027.68
2018-09-29T02:58:44.357Z,1027.65
2018-09-29T02:59:43.761Z,1027.65
2018-09-29T03:00:43.968Z,1027.62
2018-09-29T03:01:44.143Z,1027.65
2018-09-29T03:02:43.876Z,1027.63
2018-09-29T03:03:43.913Z,1027.67
2018-09-29T03:04:43.706Z,1027.7
2018-09-29T03:05:43.917Z,1027.69
2018-09-29T03:06:44.031Z,1027.73
2018-09-29T03:07:43.824Z,1027.7
2018-09-29T03:08:43.982Z,1027.68
2018-09-29T03:09:43.918Z,1027.72
2018-09-29T03:10:44.155Z,1027.71
2018-09-29T03:11:43.790Z,1027.66
2018-09-29T03:12:43.867Z,1027.69
2018-09-29T03:13:43.979Z,1027.69
2018-09-29T03:14:44.069Z,1027.68
2018-09-29T03:15:43.826Z,1027.66
2018-09-29T03:16:43.817Z,1027.66
2018-09-29T03:17:43.888Z,1027.7
2018-09-29T03:18:44.089Z,1027.66
2018-09-29T03:19:43.889Z,1027.73
2018-09-29T03:20:44.215Z,1027.77
2018-09-29T03:21:43.758Z,1027.7
2018-09-29T03:22:44.329Z,1027.73
2018-09-29T03:23:44.091Z,1027.66
2018-09-29T03:24:43.802Z,1027.7
2018-09-29T03:25:43.948Z,1027.68
2018-09-29T03:26:43.825Z,1027.66
2018-09-29T03:27:44.184Z,1027.74
2018-09-29T03:28:43.841Z,1027.73
2018-09-29T03:29:43.990Z,1027.71
2018-09-29T03:30:43.950Z,1027.67
2018-09-29T03:31:44.854Z,1027.7
2018-09-29T03:32:44.188Z,1027.73
2018-09-29T03:33:43.887Z,1027.71
2018-09-29T03:34:43.901Z,1027.75
2018-09-29T03:35:43.895Z,1027.74
2018-09-29T03:36:43.843Z,1027.72
2018-09-29T03:37:43.908Z,1027.71
2018-09-29T03:38:43.997Z,1027.75
2018-09-29T03:39:44.048Z,1027.76
2018-09-29T03:40:44.301Z,1027.78
2018-09-29T03:41:43.879Z,1027.74
2018-09-29T03:42:43.949Z,1027.73
2018-09-29T03:43:43.732Z,1027.76
2018-09-29T03:44:43.955Z,1027.7
2018-09-29T03:45:44.039Z,1027.68
2018-09-29T03:46:44.092Z,1027.7
2018-09-29T03:47:44.139Z,1027.71
2018-09-29T03:48:43.881Z,1027.65
2018-09-29T03:49:44.099Z,1027.71
2018-09-29T03:50:43.707Z,1027.71
2018-09-29T03:51:44.041Z,1027.68
2018-09-29T03:52:43.769Z,1027.6
2018-09-29T03:53:44.317Z,1027.65
2018-09-29T03:54:43.957Z,1027.65
2018-09-29T03:55:43.917Z,1027.62
2018-09-29T03:56:43.757Z,1027.61
2018-09-29T03:57:44.365Z,1027.61
2018-09-29T03:58:43.894Z,1027.6
2018-09-29T03:59:43.845Z,1027.59
2018-09-29T04:00:43.872Z,1027.64
2018-09-29T04:01:44.015Z,1027.6
2018-09-29T04:02:43.950Z,1027.59
2018-09-29T04:03:43.704Z,1027.57
2018-09-29T04:04:43.737Z,1027.58
2018-09-29T04:05:43.886Z,1027.58
2018-09-29T04:06:43.955Z,1027.62
2018-09-29T04:07:43.932Z,1027.61
2018-09-29T04:08:43.800Z,1027.57
2018-09-29T04:09:43.939Z,1027.57
2018-09-29T04:10:44.054Z,1027.59
2018-09-29T04:11:43.822Z,1027.62
2018-09-29T04:12:44.002Z,1027.66
2018-09-29T04:13:44.069Z,1027.62
2018-09-29T04:14:43.930Z,1027.64
2018-09-29T04:15:43.928Z,1027.64
2018-09-29T04:16:43.813Z,1027.67
2018-09-29T04:17:44.012Z,1027.69
2018-09-29T04:18:43.837Z,1027.69
2018-09-29T04:19:44.063Z,1027.62
2018-09-29T04:20:43.839Z,1027.64
2018-09-29T04:21:43.939Z,1027.68
2018-09-29T04:22:43.781Z,1027.69
2018-09-29T04:23:43.846Z,1027.7
2018-09-29T04:24:44.027Z,1027.72
2018-09-29T04:25:43.979Z,1027.71
2018-09-29T04:26:44.090Z,1027.68
2018-09-29T04:27:43.969Z,1027.68
2018-09-29T04:28:43.768Z,1027.73
2018-09-29T04:29:43.980Z,1027.73
2018-09-29T04:30:44.044Z,1027.72
2018-09-29T04:31:43.837Z,1027.78
2018-09-29T04:32:43.806Z,1027.77
2018-09-29T04:33:44.114Z,1027.73
2018-09-29T04:34:43.695Z,1027.72
2018-09-29T04:35:44.013Z,1027.77
2018-09-29T04:36:43.896Z,1027.75
2018-09-29T04:37:44.053Z,1027.83
2018-09-29T04:38:43.972Z,1027.78
2018-09-29T04:39:43.953Z,1027.79
2018-09-29T04:40:44.209Z,1027.74
2018-09-29T04:41:44.054Z,1027.74
2018-09-29T04:42:44.176Z,1027.78
2018-09-29T04:43:43.999Z,1027.72
2018-09-29T04:44:44.260Z,1027.78
2018-09-29T04:45:43.783Z,1027.78
2018-09-29T04:46:44.417Z,1027.75
2018-09-29T04:47:43.878Z,1027.74
2018-09-29T04:48:44.087Z,1027.78
2018-09-29T04:49:43.748Z,1027.82
2018-09-29T04:50:44.026Z,1027.81
2018-09-29T04:51:43.846Z,1027.81
2018-09-29T04:52:44.175Z,1027.83
2018-09-29T04:53:43.824Z,1027.79
2018-09-29T04:54:43.821Z,1027.85
2018-09-29T04:55:43.863Z,1027.81
2018-09-29T04:56:44.030Z,1027.81
2018-09-29T04:57:44.217Z,1027.82
2018-09-29T04:58:44.238Z,1027.86
2018-09-29T04:59:43.829Z,1027.79
2018-09-29T05:00:44.010Z,1027.83
2018-09-29T05:01:44.142Z,1027.83
2018-09-29T05:02:43.793Z,1027.85
2018-09-29T05:03:43.952Z,1027.82
2018-09-29T05:04:44.067Z,1027.85
2018-09-29T05:05:43.777Z,1027.85
2018-09-29T05:06:43.771Z,1027.81
2018-09-29T05:07:43.773Z,1027.79
2018-09-29T05:08:43.788Z,1027.82
2018-09-29T05:09:44.008Z,1027.81
2018-09-29T05:10:44.129Z,1027.81
2018-09-29T05:11:43.896Z,1027.78
2018-09-29T05:12:43.811Z,1027.78
2018-09-29T05:13:43.766Z,1027.78
2018-09-29T05:14:43.766Z,1027.74
2018-09-29T05:15:44.138Z,1027.7
2018-09-29T05:16:43.725Z,1027.71
2018-09-29T05:17:43.855Z,1027.65
2018-09-29T05:18:43.769Z,1027.68
2018-09-29T05:19:43.730Z,1027.63
2018-09-29T05:20:43.829Z,1027.62
2018-09-29T05:21:43.761Z,1027.61
2018-09-29T05:22:43.886Z,1027.62
2018-09-29T05:23:43.723Z,1027.6
2018-09-29T05:24:43.898Z,1027.57
2018-09-29T05:25:44.095Z,1027.57
2018-09-29T05:26:43.739Z,1027.57
2018-09-29T05:27:43.872Z,1027.59
2018-09-29T05:28:44.319Z,1027.69
2018-09-29T05:29:43.694Z,1027.74
2018-09-29T05:30:44.191Z,1027.72
2018-09-29T05:31:43.879Z,1027.7
2018-09-29T05:32:43.704Z,1027.71
2018-09-29T05:33:43.994Z,1027.72
2018-09-29T05:34:44.244Z,1027.7
2018-09-29T05:35:43.677Z,1027.69
2018-09-29T05:36:44.085Z,1027.71
2018-09-29T05:37:43.938Z,1027.7
2018-09-29T05:38:43.934Z,1027.75
2018-09-29T05:39:43.765Z,1027.77
2018-09-29T05:40:43.742Z,1027.79
2018-09-29T05:41:43.775Z,1027.71
2018-09-29T05:42:43.714Z,1027.8
2018-09-29T05:43:43.828Z,1027.83
2018-09-29T05:44:43.708Z,1027.8
2018-09-29T05:45:43.921Z,1027.84
2018-09-29T05:46:43.740Z,1027.85
2018-09-29T05:47:43.892Z,1027.82
2018-09-29T05:48:43.757Z,1027.86
2018-09-29T05:49:43.664Z,1027.86
2018-09-29T05:50:43.857Z,1027.93
2018-09-29T05:51:44.015Z,1027.89
2018-09-29T05:52:43.762Z,1027.97
2018-09-29T05:53:44.228Z,1027.92
2018-09-29T05:54:43.759Z,1027.93
2018-09-29T05:55:44.430Z,1027.94
2018-09-29T05:56:43.921Z,1027.93
2018-09-29T05:57:44.230Z,1027.88
2018-09-29T05:58:43.716Z,1027.9
2018-09-29T05:59:44.030Z,1027.92
2018-09-29T06:00:44.421Z,1027.93
2018-09-29T06:01:43.979Z,1027.89
2018-09-29T06:02:43.712Z,1027.9
2018-09-29T06:03:43.769Z,1028
2018-09-29T06:04:44.176Z,1028
2018-09-29T06:05:44.124Z,1028.01
2018-09-29T06:06:43.757Z,1028.04
2018-09-29T06:07:43.982Z,1028.05
2018-09-29T06:08:43.876Z,1028.04
2018-09-29T06:09:43.844Z,1028.05
2018-09-29T06:10:44.093Z,1028.09
2018-09-29T06:11:44.099Z,1028.11
2018-09-29T06:12:43.831Z,1028.14
2018-09-29T06:13:44.097Z,1028.15
2018-09-29T06:14:43.783Z,1028.15
2018-09-29T06:15:44.090Z,1028.18
2018-09-29T06:16:43.864Z,1028.23
2018-09-29T06:17:43.876Z,1028.22
2018-09-29T06:18:44.147Z,1028.29
2018-09-29T06:19:44.076Z,1028.28
2018-09-29T06:20:44.130Z,1028.29
2018-09-29T06:21:43.869Z,1028.3
2018-09-29T06:22:44.119Z,1028.33
2018-09-29T06:23:44.098Z,1028.3
2018-09-29T06:24:43.682Z,1028.34
2018-09-29T06:25:43.966Z,1028.3
2018-09-29T06:26:43.684Z,1028.34
2018-09-29T06:27:43.981Z,1028.34
2018-09-29T06:28:44.049Z,1028.29
2018-09-29T06:29:43.866Z,1028.31
2018-09-29T06:30:43.895Z,1028.3
2018-09-29T06:31:43.730Z,1028.27
2018-09-29T06:32:43.704Z,1028.3
2018-09-29T06:33:43.830Z,1028.32
2018-09-29T06:34:43.859Z,1028.29
2018-09-29T06:35:44.062Z,1028.25
2018-09-29T06:36:44.846Z,1028.32
2018-09-29T06:37:43.804Z,1028.26
2018-09-29T06:38:44.343Z,1028.31
2018-09-29T06:39:44.017Z,1028.33
2018-09-29T06:40:44.088Z,1028.35
2018-09-29T06:41:43.955Z,1028.37
2018-09-29T06:42:44.021Z,1028.39
2018-09-29T06:43:43.794Z,1028.38
2018-09-29T06:44:43.745Z,1028.35
2018-09-29T06:45:43.857Z,1028.4
2018-09-29T06:46:43.904Z,1028.41
2018-09-29T06:47:44.151Z,1028.44
2018-09-29T06:48:43.884Z,1028.47
2018-09-29T06:49:43.868Z,1028.47
2018-09-29T06:50:43.798Z,1028.5
2018-09-29T06:51:43.697Z,1028.5
2018-09-29T06:52:43.833Z,1028.47
2018-09-29T06:53:43.741Z,1028.53
2018-09-29T06:54:44.015Z,1028.5
2018-09-29T06:55:43.857Z,1028.51
2018-09-29T06:56:43.849Z,1028.47
2018-09-29T06:57:43.717Z,1028.51
2018-09-29T06:58:43.925Z,1028.5
2018-09-29T06:59:44.565Z,1028.51
2018-09-29T07:00:43.807Z,1028.51
2018-09-29T07:01:44.031Z,1028.52
2018-09-29T07:02:43.802Z,1028.53
2018-09-29T07:03:43.925Z,1028.55
2018-09-29T07:04:43.797Z,1028.48
2018-09-29T07:05:44.066Z,1028.54
2018-09-29T07:06:43.847Z,1028.54
2018-09-29T07:07:43.963Z,1028.52
2018-09-29T07:08:43.957Z,1028.55
2018-09-29T07:09:43.787Z,1028.55
2018-09-29T07:10:43.819Z,1028.54
2018-09-29T07:11:43.786Z,1028.55
2018-09-29T07:12:43.974Z,1028.53
2018-09-29T07:13:44.206Z,1028.54
2018-09-29T07:14:43.912Z,1028.53
2018-09-29T07:15:43.816Z,1028.51
2018-09-29T07:16:44.344Z,1028.5
2018-09-29T07:17:44.044Z,1028.51
2018-09-29T07:18:43.794Z,1028.46
2018-09-29T07:19:43.772Z,1028.47
2018-09-29T07:20:44.034Z,1028.46
2018-09-29T07:21:44.574Z,1028.5
2018-09-29T07:22:43.787Z,1028.47
2018-09-29T07:23:43.788Z,1028.47
2018-09-29T07:24:44.004Z,1028.49
2018-09-29T07:25:44.311Z,1028.47
2018-09-29T07:26:43.919Z,1028.42
2018-09-29T07:27:43.790Z,1028.45
2018-09-29T07:28:44.005Z,1028.45
2018-09-29T07:29:43.716Z,1028.48
2018-09-29T07:30:43.896Z,1028.5
2018-09-29T07:31:43.933Z,1028.47
2018-09-29T07:32:43.979Z,1028.46
2018-09-29T07:33:44.030Z,1028.42
2018-09-29T07:34:44.051Z,1028.45
2018-09-29T07:35:43.966Z,1028.4
2018-09-29T07:36:43.754Z,1028.41
2018-09-29T07:37:43.983Z,1028.38
2018-09-29T07:38:44.068Z,1028.45
2018-09-29T07:39:44.163Z,1028.42
2018-09-29T07:40:43.740Z,1028.44
2018-09-29T07:41:43.817Z,1028.42
2018-09-29T07:42:43.760Z,1028.44
2018-09-29T07:43:44.013Z,1028.45
2018-09-29T07:44:44.202Z,1028.41
2018-09-29T07:45:43.851Z,1028.45
2018-09-29T07:46:44.230Z,1028.42
2018-09-29T07:47:43.768Z,1028.34
2018-09-29T07:48:44.242Z,1028.39
2018-09-29T07:49:44.063Z,1028.4
2018-09-29T07:50:44.158Z,1028.42
2018-09-29T07:51:43.925Z,1028.41
2018-09-29T07:52:43.851Z,1028.44
2018-09-29T07:53:43.889Z,1028.44
2018-09-29T07:54:44.291Z,1028.4
2018-09-29T07:55:43.942Z,1028.44
2018-09-29T07:56:43.750Z,1028.43
2018-09-29T07:57:44.618Z,1028.45
2018-09-29T07:58:44.124Z,1028.43
2018-09-29T07:59:44.215Z,1028.52
2018-09-29T08:00:43.749Z,1028.48
2018-09-29T08:01:43.938Z,1028.49
2018-09-29T08:02:43.832Z,1028.52
2018-09-29T08:03:44.002Z,1028.55
2018-09-29T08:04:43.773Z,1028.52
2018-09-29T08:05:43.896Z,1028.49
2018-09-29T08:06:43.695Z,1028.49
2018-09-29T08:07:43.760Z,1028.53
2018-09-29T08:08:44.018Z,1028.5
2018-09-29T08:09:44.096Z,1028.5
2018-09-29T08:10:43.873Z,1028.53
2018-09-29T08:11:43.776Z,1028.47
2018-09-29T08:12:43.762Z,1028.52
2018-09-29T08:13:43.955Z,1028.54
2018-09-29T08:14:43.871Z,1028.53
2018-09-29T08:15:43.785Z,1028.51
2018-09-29T08:16:43.863Z,1028.56
2018-09-29T08:17:43.877Z,1028.54
2018-09-29T08:18:44.071Z,1028.54
2018-09-29T08:19:43.952Z,1028.52
2018-09-29T08:20:43.860Z,1028.45
2018-09-29T08:21:43.817Z,1028.48
2018-09-29T08:22:43.856Z,1028.43
2018-09-29T08:23:43.762Z,1028.4
2018-09-29T08:24:43.752Z,1028.4
2018-09-29T08:25:43.820Z,1028.4
2018-09-29T08:26:44.106Z,1028.46
2018-09-29T08:27:44.270Z,1028.37
2018-09-29T08:28:43.924Z,1028.39
2018-09-29T08:29:43.646Z,1028.38
2018-09-29T08:30:43.866Z,1028.42
2018-09-29T08:31:43.752Z,1028.39
2018-09-29T08:32:44.080Z,1028.4
2018-09-29T08:33:43.993Z,1028.41
2018-09-29T08:34:44.054Z,1028.41
2018-09-29T08:35:43.727Z,1028.41
2018-09-29T08:36:43.907Z,1028.41
2018-09-29T08:37:44.232Z,1028.45
2018-09-29T08:38:43.905Z,1028.39
2018-09-29T08:39:43.845Z,1028.4
2018-09-29T08:40:43.742Z,1028.42
2018-09-29T08:41:43.731Z,1028.4
2018-09-29T08:42:44.008Z,1028.39
2018-09-29T08:43:43.849Z,1028.38
2018-09-29T08:44:44.217Z,1028.41
2018-09-29T08:45:43.885Z,1028.37
2018-09-29T08:46:43.969Z,1028.39
2018-09-29T08:47:43.972Z,1028.4
2018-09-29T08:48:43.698Z,1028.38
2018-09-29T08:49:43.898Z,1028.41
2018-09-29T08:50:43.686Z,1028.33
2018-09-29T08:51:43.730Z,1028.43
2018-09-29T08:52:43.858Z,1028.42
2018-09-29T08:53:44.297Z,1028.37
2018-09-29T08:54:43.815Z,1028.4
2018-09-29T08:55:44.012Z,1028.43
2018-09-29T08:56:43.780Z,1028.37
2018-09-29T08:57:43.796Z,1028.38
2018-09-29T08:58:43.794Z,1028.45
2018-09-29T08:59:43.822Z,1028.42
2018-09-29T09:00:43.827Z,1028.37
2018-09-29T09:01:43.678Z,1028.47
2018-09-29T09:02:43.786Z,1028.43
2018-09-29T09:03:43.762Z,1028.43
2018-09-29T09:04:43.758Z,1028.41
2018-09-29T09:05:43.747Z,1028.35
2018-09-29T09:06:43.949Z,1028.35
2018-09-29T09:07:43.753Z,1028.26
2018-09-29T09:08:43.794Z,1028.23
2018-09-29T09:09:43.980Z,1028.28
2018-09-29T09:10:43.658Z,1028.3
2018-09-29T09:11:43.730Z,1028.33
2018-09-29T09:12:43.891Z,1028.31
2018-09-29T09:13:44.073Z,1028.32
2018-09-29T09:14:44.147Z,1028.32
2018-09-29T09:15:44.039Z,1028.25
2018-09-29T09:16:43.951Z,1028.3
2018-09-29T09:17:43.746Z,1028.29
2018-09-29T09:18:43.697Z,1028.2
2018-09-29T09:19:43.972Z,1028.23
2018-09-29T09:20:43.812Z,1028.25
2018-09-29T09:21:43.982Z,1028.21
2018-09-29T09:22:44.039Z,1028.19
2018-09-29T09:23:44.120Z,1028.22
2018-09-29T09:24:43.826Z,1028.2
2018-09-29T09:25:43.997Z,1028.2
2018-09-29T09:26:44.126Z,1028.19
2018-09-29T09:27:44.151Z,1028.18
2018-09-29T09:28:43.896Z,1028.21
2018-09-29T09:29:44.051Z,1028.21
2018-09-29T09:30:43.802Z,1028.18
2018-09-29T09:31:43.818Z,1028.17
2018-09-29T09:32:43.895Z,1028.21
2018-09-29T09:33:43.832Z,1028.2
2018-09-29T09:34:43.812Z,1028.18
2018-09-29T09:35:43.916Z,1028.16
2018-09-29T09:36:43.679Z,1028.17
2018-09-29T09:37:43.865Z,1028.05
2018-09-29T09:38:43.681Z,1028.17
2018-09-29T09:39:43.738Z,1028.08
2018-09-29T09:40:43.737Z,1028.09
2018-09-29T09:41:43.782Z,1028.05
2018-09-29T09:42:43.934Z,1028.02
2018-09-29T09:43:43.642Z,1027.98
2018-09-29T09:44:43.884Z,1028.03
2018-09-29T09:45:43.646Z,1027.97
2018-09-29T09:46:43.648Z,1027.99
2018-09-29T09:47:43.613Z,1027.97
2018-09-29T09:50:43.844Z,1027.87
2018-09-29T09:51:44.015Z,1027.89
2018-09-29T09:52:43.894Z,1027.87
2018-09-29T09:53:43.757Z,1027.84
2018-09-29T09:55:44.033Z,1027.79
2018-09-29T09:56:43.915Z,1027.87
2018-09-29T09:57:43.855Z,1027.81
2018-09-29T09:58:43.987Z,1027.83
2018-09-29T10:00:43.745Z,1027.75
2018-09-29T10:01:43.917Z,1027.76
2018-09-29T10:02:43.873Z,1027.77
2018-09-29T10:03:43.828Z,1027.74
2018-09-29T10:05:44.103Z,1027.75
2018-09-29T10:06:43.685Z,1027.77
2018-09-29T10:07:43.936Z,1027.78
2018-09-29T10:08:43.903Z,1027.72
2018-09-29T10:10:43.859Z,1027.77
2018-09-29T10:11:43.964Z,1027.8
2018-09-29T10:12:43.826Z,1027.78
2018-09-29T10:13:44.067Z,1027.74
2018-09-29T10:15:43.916Z,1027.84
2018-09-29T10:16:43.832Z,1027.81
2018-09-29T10:17:43.810Z,1027.76
2018-09-29T10:18:43.715Z,1027.82
2018-09-29T10:20:43.801Z,1027.67
2018-09-29T10:21:44.115Z,1027.73
2018-09-29T10:23:44.130Z,1027.62
2018-09-29T10:24:43.890Z,1027.66
2018-09-29T10:26:43.716Z,1027.64
2018-09-29T10:28:43.913Z,1027.62
2018-09-29T10:29:43.974Z,1027.56
2018-09-29T10:30:44.297Z,1027.66
2018-09-29T10:31:43.832Z,1027.56
2018-09-29T10:33:43.855Z,1027.51
2018-09-29T10:34:43.989Z,1027.53
2018-09-29T10:36:43.760Z,1027.54
2018-09-29T10:37:43.832Z,1027.52
2018-09-29T10:38:43.674Z,1027.46
2018-09-29T10:39:43.897Z,1027.42
2018-09-29T10:41:43.761Z,1027.4
2018-09-29T10:42:43.716Z,1027.38
2018-09-29T10:43:43.703Z,1027.36
2018-09-29T10:44:43.967Z,1027.36
2018-09-29T10:46:43.811Z,1027.28
2018-09-29T10:47:43.993Z,1027.42
2018-09-29T10:49:43.811Z,1027.31
2018-09-29T10:50:43.803Z,1027.33
2018-09-29T10:51:43.757Z,1027.33
2018-09-29T10:52:43.758Z,1027.32
2018-09-29T10:54:43.732Z,1027.27
2018-09-29T10:55:43.620Z,1027.33
2018-09-29T10:56:43.839Z,1027.26
2018-09-29T10:57:43.861Z,1027.29
2018-09-29T10:59:43.645Z,1027.32
2018-09-29T11:00:43.716Z,1027.23
2018-09-29T11:01:43.717Z,1027.26
2018-09-29T11:02:43.989Z,1027.19
2018-09-29T11:04:43.787Z,1027.24
2018-09-29T11:05:43.659Z,1027.18
2018-09-29T11:06:43.858Z,1027.16
2018-09-29T11:07:43.779Z,1027.22
2018-09-29T11:09:44.085Z,1027.09
2018-09-29T11:10:43.945Z,1027.05
2018-09-29T11:11:43.675Z,1027.04
2018-09-29T11:12:43.776Z,1027.03
2018-09-29T11:14:43.777Z,1026.95
2018-09-29T11:15:43.771Z,1026.9
2018-09-29T11:16:43.759Z,1026.96
2018-09-29T11:17:43.816Z,1026.87
2018-09-29T11:19:43.820Z,1026.92
2018-09-29T11:20:44.026Z,1026.87
2018-09-29T11:21:43.709Z,1026.87
2018-09-29T11:22:43.899Z,1026.84
2018-09-29T11:25:43.718Z,1026.78
2018-09-29T11:26:43.712Z,1026.81
2018-09-29T11:27:44.431Z,1026.75
2018-09-29T11:30:43.822Z,1026.71
2018-09-29T11:31:43.916Z,1026.61
2018-09-29T11:33:43.775Z,1026.61
2018-09-29T11:34:43.658Z,1026.64
2018-09-29T11:35:43.755Z,1026.61
2018-09-29T11:36:43.912Z,1026.65
2018-09-29T11:38:43.956Z,1026.61
2018-09-29T11:39:43.794Z,1026.58
2018-09-29T11:40:43.642Z,1026.51
2018-09-29T11:41:44.053Z,1026.6
2018-09-29T11:43:43.739Z,1026.55
2018-09-29T11:44:44.020Z,1026.49
2018-09-29T11:45:43.835Z,1026.51
2018-09-29T11:46:43.781Z,1026.42
2018-09-29T11:48:43.893Z,1026.36
2018-09-29T11:49:44.110Z,1026.33
2018-09-29T11:51:43.741Z,1026.29
2018-09-29T11:53:43.982Z,1026.29
2018-09-29T11:54:43.851Z,1026.24
2018-09-29T11:55:43.760Z,1026.25
2018-09-29T11:56:43.768Z,1026.2
2018-09-29T11:58:43.632Z,1026.18
2018-09-29T11:59:43.800Z,1026.2
2018-09-29T12:00:43.989Z,1026.19
2018-09-29T12:01:44.209Z,1026.18
2018-09-29T12:04:43.741Z,1026.11
2018-09-29T12:05:43.629Z,1026.16
2018-09-29T12:06:43.782Z,1026.11
2018-09-29T12:08:43.850Z,1026.08
2018-09-29T12:09:43.744Z,1026.06
2018-09-29T12:10:43.590Z,1025.99
2018-09-29T12:11:43.619Z,1026
2018-09-29T12:13:44.015Z,1025.91
2018-09-29T12:14:43.718Z,1025.89
2018-09-29T12:15:43.655Z,1025.87
2018-09-29T12:16:43.837Z,1025.98
2018-09-29T12:18:43.757Z,1025.95
2018-09-29T12:19:44.209Z,1025.89
2018-09-29T12:20:43.803Z,1025.83
2018-09-29T12:21:43.691Z,1025.82
2018-09-29T12:26:00.791Z,1025.83
2018-09-29T12:27:00.774Z,1025.76
2018-09-29T12:28:01.178Z,1025.74
2018-09-29T12:29:00.784Z,1025.76
2018-09-29T12:30:01.425Z,1025.7
2018-09-29T12:31:01.228Z,1025.66
2018-09-29T12:32:01.555Z,1025.68
2018-09-29T12:33:01.035Z,1025.68
2018-09-29T12:34:01.148Z,1025.71
2018-09-29T12:35:01.072Z,1025.71
2018-09-29T12:36:00.800Z,1025.63
2018-09-29T12:37:01.720Z,1025.66
2018-09-29T12:38:00.675Z,1025.59
2018-09-29T12:39:00.727Z,1025.59
2018-09-29T12:40:00.789Z,1025.55
2018-09-29T12:41:00.882Z,1025.56
2018-09-29T12:42:00.917Z,1025.61
2018-09-29T12:43:01.064Z,1025.59
2018-09-29T12:44:00.783Z,1025.55
2018-09-29T12:45:00.944Z,1025.5
2018-09-29T12:46:01.004Z,1025.47
2018-09-29T12:47:00.764Z,1025.51
2018-09-29T12:48:00.953Z,1025.48
2018-09-29T12:49:00.724Z,1025.45
2018-09-29T12:50:01.153Z,1025.47